sensor_id;sensor_type;location;lat;lon;timestamp;temperature;humidity
5631;DHT22;2837;50.990;7.124;2022-12-07T06:01:45;7.80;99.90
5631;DHT22;2837;50.990;7.124;2022-12-07T06:04:11;7.80;99.90
5631;DHT22;2837;50.990;7.124;2022-12-07T06:06:37;7.80;99.90
5631;DHT22;2837;50.990;7.124;2022-12-07T06:09:03;7.80;99.90
5631;DHT22;2837;50.990;7.124;2022-12-07T06:11:28;7.80;99.90
5631;DHT22;2837;50.990;7.124;2022-12-07T06:14:13;7.80;99.90
5631;DHT22;2837;50.990;7.124;2022-12-07T06:16:39;7.70;99.90
5631;DHT22;2837;50.990;7.124;2022-12-07T06:19:04;7.80;99.90
5631;DHT22;2837;50.990;7.124;2022-12-07T06:21:30;7.80;99.90
5631;DHT22;2837;50.990;7.124;2022-12-07T06:23:55;7.80;99.90
5631;DHT22;2837;50.990;7.124;2022-12-07T06:26:21;7.80;99.90
5631;DHT22;2837;50.990;7.124;2022-12-07T06:28:46;7.90;99.90
5631;DHT22;2837;50.990;7.124;2022-12-07T06:31:12;7.90;99.90
5631;DHT22;2837;50.990;7.124;2022-12-07T06:33:38;7.90;99.90
5631;DHT22;2837;50.990;7.124;2022-12-07T06:36:03;7.90;99.90
5631;DHT22;2837;50.990;7.124;2022-12-07T06:38:29;7.80;99.90
5631;DHT22;2837;50.990;7.124;2022-12-07T06:40:54;7.80;99.90
5631;DHT22;2837;50.990;7.124;2022-12-07T06:43:20;7.90;99.90
5631;DHT22;2837;50.990;7.124;2022-12-07T06:45:45;7.90;99.90
5631;DHT22;2837;50.990;7.124;2022-12-07T06:48:11;7.80;99.90
5631;DHT22;2837;50.990;7.124;2022-12-07T06:50:37;7.80;99.90
5631;DHT22;2837;50.990;7.124;2022-12-07T06:53:02;7.80;99.90
5631;DHT22;2837;50.990;7.124;2022-12-07T06:55:28;7.80;99.90
5631;DHT22;2837;50.990;7.124;2022-12-07T06:57:53;7.80;99.90
5631;DHT22;2837;50.990;7.124;2022-12-07T07:00:19;7.80;99.90
5631;DHT22;2837;50.990;7.124;2022-12-07T07:02:44;7.80;99.90
5631;DHT22;2837;50.990;7.124;2022-12-07T07:05:10;7.80;99.90
5631;DHT22;2837;50.990;7.124;2022-12-07T07:07:35;7.80;99.90
5631;DHT22;2837;50.990;7.124;2022-12-07T07:10:01;7.80;99.90
5631;DHT22;2837;50.990;7.124;2022-12-07T07:12:26;7.80;99.90
5631;DHT22;2837;50.990;7.124;2022-12-07T07:14:52;7.90;99.90
5631;DHT22;2837;50.990;7.124;2022-12-07T07:17:18;7.80;99.90
5631;DHT22;2837;50.990;7.124;2022-12-07T07:19:43;7.70;99.90
5631;DHT22;2837;50.990;7.124;2022-12-07T07:22:09;7.70;99.90
5631;DHT22;2837;50.990;7.124;2022-12-07T07:24:34;7.70;99.90
5631;DHT22;2837;50.990;7.124;2022-12-07T07:27:00;7.70;99.90
5631;DHT22;2837;50.990;7.124;2022-12-07T07:29:25;7.70;99.90
5631;DHT22;2837;50.990;7.124;2022-12-07T07:31:51;7.80;99.90
5631;DHT22;2837;50.990;7.124;2022-12-07T07:34:16;7.80;99.90
5631;DHT22;2837;50.990;7.124;2022-12-07T07:36:42;7.70;99.90
5631;DHT22;2837;50.990;7.124;2022-12-07T07:39:09;7.70;99.90
5631;DHT22;2837;50.990;7.124;2022-12-07T07:41:34;7.80;99.90
5631;DHT22;2837;50.990;7.124;2022-12-07T07:44:00;7.80;99.90
5631;DHT22;2837;50.990;7.124;2022-12-07T07:46:25;7.80;99.90
5631;DHT22;2837;50.990;7.124;2022-12-07T07:48:51;7.80;99.90
5631;DHT22;2837;50.990;7.124;2022-12-07T07:51:16;7.70;99.90
5631;DHT22;2837;50.990;7.124;2022-12-07T07:53:42;7.80;99.90
5631;DHT22;2837;50.990;7.124;2022-12-07T07:56:07;7.80;99.90
5631;DHT22;2837;50.990;7.124;2022-12-07T07:58:33;7.80;99.90
5631;DHT22;2837;50.990;7.124;2022-12-07T08:01:06;7.80;99.90
5631;DHT22;2837;50.990;7.124;2022-12-07T08:03:32;7.80;99.90
5631;DHT22;2837;50.990;7.124;2022-12-07T08:05:57;7.80;99.90
5631;DHT22;2837;50.990;7.124;2022-12-07T08:08:23;7.90;99.90
5631;DHT22;2837;50.990;7.124;2022-12-07T08:10:49;7.80;99.90
5631;DHT22;2837;50.990;7.124;2022-12-07T08:13:16;7.80;99.90
5631;DHT22;2837;50.990;7.124;2022-12-07T08:15:44;7.80;99.90
5631;DHT22;2837;50.990;7.124;2022-12-07T08:18:11;7.90;99.90
5631;DHT22;2837;50.990;7.124;2022-12-07T08:20:37;7.90;99.90
5631;DHT22;2837;50.990;7.124;2022-12-07T08:23:04;7.90;99.90
5631;DHT22;2837;50.990;7.124;2022-12-07T08:25:29;7.90;99.90
5631;DHT22;2837;50.990;7.124;2022-12-07T08:27:55;7.80;99.90
5631;DHT22;2837;50.990;7.124;2022-12-07T08:30:21;7.90;99.90
5631;DHT22;2837;50.990;7.124;2022-12-07T08:32:47;7.90;99.90
5631;DHT22;2837;50.990;7.124;2022-12-07T08:35:14;7.90;99.90
5631;DHT22;2837;50.990;7.124;2022-12-07T08:37:40;8.00;99.90
5631;DHT22;2837;50.990;7.124;2022-12-07T08:40:07;8.00;99.90
5631;DHT22;2837;50.990;7.124;2022-12-07T08:42:32;8.10;99.90
5631;DHT22;2837;50.990;7.124;2022-12-07T08:45:07;8.10;99.90
5631;DHT22;2837;50.990;7.124;2022-12-07T08:47:37;8.00;99.90
5631;DHT22;2837;50.990;7.124;2022-12-07T08:50:06;8.10;99.90
5631;DHT22;2837;50.990;7.124;2022-12-07T08:52:32;8.00;99.90
5631;DHT22;2837;50.990;7.124;2022-12-07T08:54:59;8.10;99.90
5631;DHT22;2837;50.990;7.124;2022-12-07T08:57:27;8.10;99.90
5631;DHT22;2837;50.990;7.124;2022-12-07T08:59:53;8.10;99.90
5631;DHT22;2837;50.990;7.124;2022-12-07T09:02:19;8.00;99.90
5631;DHT22;2837;50.990;7.124;2022-12-07T09:04:45;8.00;99.90
5631;DHT22;2837;50.990;7.124;2022-12-07T09:07:10;8.00;99.90
5631;DHT22;2837;50.990;7.124;2022-12-07T09:09:36;8.00;99.90
5631;DHT22;2837;50.990;7.124;2022-12-07T09:12:02;8.00;99.90
5631;DHT22;2837;50.990;7.124;2022-12-07T09:14:27;8.00;99.90
5631;DHT22;2837;50.990;7.124;2022-12-07T09:16:53;8.10;99.90
5631;DHT22;2837;50.990;7.124;2022-12-07T09:19:18;8.10;99.90
5631;DHT22;2837;50.990;7.124;2022-12-07T09:21:44;8.10;99.90
5631;DHT22;2837;50.990;7.124;2022-12-07T09:24:12;8.10;99.90
5631;DHT22;2837;50.990;7.124;2022-12-07T09:26:37;8.00;99.90
5631;DHT22;2837;50.990;7.124;2022-12-07T09:29:04;8.10;99.90
5631;DHT22;2837;50.990;7.124;2022-12-07T09:31:30;8.20;99.90
5631;DHT22;2837;50.990;7.124;2022-12-07T09:33:57;8.20;99.90
5631;DHT22;2837;50.990;7.124;2022-12-07T09:36:24;8.10;99.90
5631;DHT22;2837;50.990;7.124;2022-12-07T09:38:50;8.20;99.90
5631;DHT22;2837;50.990;7.124;2022-12-07T09:41:15;8.20;99.90
5631;DHT22;2837;50.990;7.124;2022-12-07T09:43:41;8.20;99.90
5631;DHT22;2837;50.990;7.124;2022-12-07T09:46:11;8.30;99.90
5631;DHT22;2837;50.990;7.124;2022-12-07T09:48:38;8.20;99.90
5631;DHT22;2837;50.990;7.124;2022-12-07T09:51:24;8.30;99.90
5631;DHT22;2837;50.990;7.124;2022-12-07T09:53:52;8.20;99.90
5631;DHT22;2837;50.990;7.124;2022-12-07T09:56:19;8.20;99.90
5631;DHT22;2837;50.990;7.124;2022-12-07T09:58:45;8.20;99.90
5631;DHT22;2837;50.990;7.124;2022-12-07T10:01:15;8.30;99.90
5631;DHT22;2837;50.990;7.124;2022-12-07T10:03:51;8.30;99.90
5631;DHT22;2837;50.990;7.124;2022-12-07T10:06:17;8.20;99.90
5631;DHT22;2837;50.990;7.124;2022-12-07T10:08:43;8.30;99.90
5631;DHT22;2837;50.990;7.124;2022-12-07T10:11:10;8.30;99.90
5631;DHT22;2837;50.990;7.124;2022-12-07T10:13:41;8.30;99.90
5631;DHT22;2837;50.990;7.124;2022-12-07T10:16:38;8.30;99.90
5631;DHT22;2837;50.990;7.124;2022-12-07T10:22:04;8.30;99.90
5631;DHT22;2837;50.990;7.124;2022-12-07T10:24:30;8.40;99.90
5631;DHT22;2837;50.990;7.124;2022-12-07T10:26:56;8.40;99.90
5631;DHT22;2837;50.990;7.124;2022-12-07T10:29:23;8.40;99.90
5631;DHT22;2837;50.990;7.124;2022-12-07T10:31:54;8.40;99.90
5631;DHT22;2837;50.990;7.124;2022-12-07T10:34:22;8.40;99.90
5631;DHT22;2837;50.990;7.124;2022-12-07T10:36:50;8.40;99.90
5631;DHT22;2837;50.990;7.124;2022-12-07T10:39:21;8.40;99.90
5631;DHT22;2837;50.990;7.124;2022-12-07T10:42:01;8.40;99.90
5631;DHT22;2837;50.990;7.124;2022-12-07T10:44:32;8.40;99.90
5631;DHT22;2837;50.990;7.124;2022-12-07T10:47:10;8.40;99.90
5631;DHT22;2837;50.990;7.124;2022-12-07T10:52:11;8.50;99.90
5631;DHT22;2837;50.990;7.124;2022-12-07T11:00:54;8.50;99.90
5631;DHT22;2837;50.990;7.124;2022-12-07T11:03:27;8.40;99.90
5631;DHT22;2837;50.990;7.124;2022-12-07T11:11:48;8.40;99.90
5631;DHT22;2837;50.990;7.124;2022-12-07T11:16:52;8.50;99.90
5631;DHT22;2837;50.990;7.124;2022-12-07T11:19:47;8.50;99.90
5631;DHT22;2837;50.990;7.124;2022-12-07T11:25:18;8.50;99.90
5631;DHT22;2837;50.990;7.124;2022-12-07T11:27:55;8.50;99.90
5631;DHT22;2837;50.990;7.124;2022-12-07T11:30:34;8.60;99.90
5631;DHT22;2837;50.990;7.124;2022-12-07T11:36:17;8.60;99.90
5631;DHT22;2837;50.990;7.124;2022-12-07T11:38:57;8.60;99.90
5631;DHT22;2837;50.990;7.124;2022-12-07T11:41:29;8.60;99.90
5631;DHT22;2837;50.990;7.124;2022-12-07T11:44:11;8.70;99.90
5631;DHT22;2837;50.990;7.124;2022-12-07T11:46:49;8.60;99.90
5631;DHT22;2837;50.990;7.124;2022-12-07T11:49:27;8.60;99.90
5631;DHT22;2837;50.990;7.124;2022-12-07T11:52:02;8.60;99.90
5631;DHT22;2837;50.990;7.124;2022-12-07T11:54:34;8.60;99.90
5631;DHT22;2837;50.990;7.124;2022-12-07T11:57:12;8.60;99.90
5631;DHT22;2837;50.990;7.124;2022-12-07T11:59:50;8.60;99.90
5631;DHT22;2837;50.990;7.124;2022-12-07T12:02:41;8.60;99.90
5631;DHT22;2837;50.990;7.124;2022-12-07T12:05:18;8.60;99.90
5631;DHT22;2837;50.990;7.124;2022-12-07T12:07:46;8.60;99.90
5631;DHT22;2837;50.990;7.124;2022-12-07T12:13:26;8.50;99.90
5631;DHT22;2837;50.990;7.124;2022-12-07T12:22:17;8.60;99.90
5631;DHT22;2837;50.990;7.124;2022-12-07T12:24:45;8.50;99.90
5631;DHT22;2837;50.990;7.124;2022-12-07T12:27:23;8.50;99.90
5631;DHT22;2837;50.990;7.124;2022-12-07T12:29:55;8.50;99.90
5631;DHT22;2837;50.990;7.124;2022-12-07T12:32:35;8.50;99.90
5631;DHT22;2837;50.990;7.124;2022-12-07T12:35:34;8.50;99.90
5631;DHT22;2837;50.990;7.124;2022-12-07T12:40:49;8.50;99.90
5631;DHT22;2837;50.990;7.124;2022-12-07T12:43:50;8.50;99.90
5631;DHT22;2837;50.990;7.124;2022-12-07T13:05:03;8.70;99.90
5631;DHT22;2837;50.990;7.124;2022-12-07T13:10:33;8.80;99.90
5631;DHT22;2837;50.990;7.124;2022-12-07T13:18:39;8.70;99.90
5631;DHT22;2837;50.990;7.124;2022-12-07T13:26:19;8.70;99.90
5631;DHT22;2837;50.990;7.124;2022-12-07T13:31:44;8.70;99.90
5631;DHT22;2837;50.990;7.124;2022-12-07T13:34:30;8.80;99.90
5631;DHT22;2837;50.990;7.124;2022-12-07T13:36:57;8.80;99.90
5631;DHT22;2837;50.990;7.124;2022-12-07T13:39:24;8.80;99.90
5631;DHT22;2837;50.990;7.124;2022-12-07T13:42:09;8.70;99.90
5631;DHT22;2837;50.990;7.124;2022-12-07T13:44:40;8.70;99.90
5631;DHT22;2837;50.990;7.124;2022-12-07T13:49:53;8.70;99.90
5631;DHT22;2837;50.990;7.124;2022-12-07T13:52:24;8.60;99.90
5631;DHT22;2837;50.990;7.124;2022-12-07T13:55:00;8.60;99.90
5631;DHT22;2837;50.990;7.124;2022-12-07T13:57:28;8.60;99.90
5631;DHT22;2837;50.990;7.124;2022-12-07T13:59:56;8.60;99.90
5631;DHT22;2837;50.990;7.124;2022-12-07T14:04:49;8.60;99.90
5631;DHT22;2837;50.990;7.124;2022-12-07T14:07:26;8.60;99.90
5631;DHT22;2837;50.990;7.124;2022-12-07T14:10:01;8.60;99.90
5631;DHT22;2837;50.990;7.124;2022-12-07T14:12:30;8.60;99.90
5631;DHT22;2837;50.990;7.124;2022-12-07T14:14:56;8.70;99.90
5631;DHT22;2837;50.990;7.124;2022-12-07T14:17:25;8.70;99.90
5631;DHT22;2837;50.990;7.124;2022-12-07T14:19:55;8.70;99.90
5631;DHT22;2837;50.990;7.124;2022-12-07T14:27:32;8.60;99.90
5631;DHT22;2837;50.990;7.124;2022-12-07T14:30:02;8.60;99.90
5631;DHT22;2837;50.990;7.124;2022-12-07T14:32:29;8.60;99.90
5631;DHT22;2837;50.990;7.124;2022-12-07T14:35:16;8.60;99.90
5631;DHT22;2837;50.990;7.124;2022-12-07T14:37:45;8.60;99.90
5631;DHT22;2837;50.990;7.124;2022-12-07T14:40:17;8.60;99.90
5631;DHT22;2837;50.990;7.124;2022-12-07T14:42:45;8.60;99.90
5631;DHT22;2837;50.990;7.124;2022-12-07T14:45:17;8.70;99.90
5631;DHT22;2837;50.990;7.124;2022-12-07T14:47:44;8.60;99.90
5631;DHT22;2837;50.990;7.124;2022-12-07T14:50:15;8.60;99.90
5631;DHT22;2837;50.990;7.124;2022-12-07T14:52:43;8.60;99.90
5631;DHT22;2837;50.990;7.124;2022-12-07T14:55:23;8.60;99.90
5631;DHT22;2837;50.990;7.124;2022-12-07T14:57:49;8.60;99.90
5631;DHT22;2837;50.990;7.124;2022-12-07T15:00:15;8.60;99.90
5631;DHT22;2837;50.990;7.124;2022-12-07T15:02:43;8.60;99.90
5631;DHT22;2837;50.990;7.124;2022-12-07T15:05:09;8.50;99.90
5631;DHT22;2837;50.990;7.124;2022-12-07T15:07:35;8.50;99.90
5631;DHT22;2837;50.990;7.124;2022-12-07T15:10:00;8.60;99.90
5631;DHT22;2837;50.990;7.124;2022-12-07T15:12:26;8.50;99.90
5631;DHT22;2837;50.990;7.124;2022-12-07T15:14:52;8.50;99.90
5631;DHT22;2837;50.990;7.124;2022-12-07T15:17:17;8.50;99.90
5631;DHT22;2837;50.990;7.124;2022-12-07T15:19:43;8.50;99.90
5631;DHT22;2837;50.990;7.124;2022-12-07T15:22:09;8.50;99.90
5631;DHT22;2837;50.990;7.124;2022-12-07T15:24:36;8.50;99.90
5631;DHT22;2837;50.990;7.124;2022-12-07T15:27:02;8.40;99.90
5631;DHT22;2837;50.990;7.124;2022-12-07T15:29:28;8.40;99.90
5631;DHT22;2837;50.990;7.124;2022-12-07T15:31:54;8.40;99.90
5631;DHT22;2837;50.990;7.124;2022-12-07T15:34:20;8.40;99.90
5631;DHT22;2837;50.990;7.124;2022-12-07T15:36:45;8.40;99.90
5631;DHT22;2837;50.990;7.124;2022-12-07T15:39:11;8.40;99.90
5631;DHT22;2837;50.990;7.124;2022-12-07T15:41:37;8.40;99.90
5631;DHT22;2837;50.990;7.124;2022-12-07T15:44:03;8.40;99.90
5631;DHT22;2837;50.990;7.124;2022-12-07T15:46:47;8.40;99.90
5631;DHT22;2837;50.990;7.124;2022-12-07T15:49:16;8.50;99.90
5631;DHT22;2837;50.990;7.124;2022-12-07T15:51:43;8.50;99.90
5631;DHT22;2837;50.990;7.124;2022-12-07T15:54:24;8.50;99.90
5631;DHT22;2837;50.990;7.124;2022-12-07T15:56:51;8.50;99.90
5631;DHT22;2837;50.990;7.124;2022-12-07T15:59:17;8.50;99.90
5631;DHT22;2837;50.990;7.124;2022-12-07T16:01:43;8.40;99.90
5631;DHT22;2837;50.990;7.124;2022-12-07T16:04:09;8.30;99.90
5631;DHT22;2837;50.990;7.124;2022-12-07T16:06:34;8.30;99.90
5631;DHT22;2837;50.990;7.124;2022-12-07T16:09:03;8.20;99.90
5631;DHT22;2837;50.990;7.124;2022-12-07T16:11:30;8.20;99.90
5631;DHT22;2837;50.990;7.124;2022-12-07T16:13:55;8.20;99.90
5631;DHT22;2837;50.990;7.124;2022-12-07T16:16:21;8.20;99.90
5631;DHT22;2837;50.990;7.124;2022-12-07T16:18:48;8.10;99.90
5631;DHT22;2837;50.990;7.124;2022-12-07T16:21:16;8.10;99.90
5631;DHT22;2837;50.990;7.124;2022-12-07T16:23:42;8.20;99.90
5631;DHT22;2837;50.990;7.124;2022-12-07T16:26:14;8.20;99.90
5631;DHT22;2837;50.990;7.124;2022-12-07T16:28:41;8.10;99.90
5631;DHT22;2837;50.990;7.124;2022-12-07T16:31:15;8.10;99.90
5631;DHT22;2837;50.990;7.124;2022-12-07T16:33:42;8.10;99.90
5631;DHT22;2837;50.990;7.124;2022-12-07T16:36:09;8.10;99.90
5631;DHT22;2837;50.990;7.124;2022-12-07T16:38:36;8.10;99.90
5631;DHT22;2837;50.990;7.124;2022-12-07T16:41:03;8.00;99.90
5631;DHT22;2837;50.990;7.124;2022-12-07T16:43:29;8.00;99.90
5631;DHT22;2837;50.990;7.124;2022-12-07T16:45:54;8.00;99.90
5631;DHT22;2837;50.990;7.124;2022-12-07T16:48:20;8.00;99.90
5631;DHT22;2837;50.990;7.124;2022-12-07T16:50:46;8.00;99.90
5631;DHT22;2837;50.990;7.124;2022-12-07T16:53:13;8.00;99.90
5631;DHT22;2837;50.990;7.124;2022-12-07T16:55:44;8.00;99.90
5631;DHT22;2837;50.990;7.124;2022-12-07T16:58:11;8.00;99.90
5631;DHT22;2837;50.990;7.124;2022-12-07T17:00:37;8.00;99.90
5631;DHT22;2837;50.990;7.124;2022-12-07T17:03:03;8.00;99.90
5631;DHT22;2837;50.990;7.124;2022-12-07T17:05:29;8.00;99.90
5631;DHT22;2837;50.990;7.124;2022-12-07T17:07:56;8.00;99.90
5631;DHT22;2837;50.990;7.124;2022-12-07T17:10:22;8.00;99.90
5631;DHT22;2837;50.990;7.124;2022-12-07T17:12:48;8.00;99.90
5631;DHT22;2837;50.990;7.124;2022-12-07T17:15:13;8.00;99.90
5631;DHT22;2837;50.990;7.124;2022-12-07T17:17:51;8.00;99.90
5631;DHT22;2837;50.990;7.124;2022-12-07T17:20:17;8.00;99.90
5631;DHT22;2837;50.990;7.124;2022-12-07T17:22:44;8.00;99.90
5631;DHT22;2837;50.990;7.124;2022-12-07T17:25:10;7.90;99.90
5631;DHT22;2837;50.990;7.124;2022-12-07T17:27:36;7.90;99.90
5631;DHT22;2837;50.990;7.124;2022-12-07T17:30:03;8.00;99.90
5631;DHT22;2837;50.990;7.124;2022-12-07T17:32:29;8.00;99.90
5631;DHT22;2837;50.990;7.124;2022-12-07T17:34:55;8.10;99.90
5631;DHT22;2837;50.990;7.124;2022-12-07T17:37:20;8.10;99.90
5631;DHT22;2837;50.990;7.124;2022-12-07T17:39:46;8.10;99.90
5631;DHT22;2837;50.990;7.124;2022-12-07T17:42:11;8.10;99.90
5631;DHT22;2837;50.990;7.124;2022-12-07T17:44:55;8.00;99.90
5631;DHT22;2837;50.990;7.124;2022-12-07T17:47:21;8.10;99.90
5631;DHT22;2837;50.990;7.124;2022-12-07T17:49:46;8.10;99.90
5631;DHT22;2837;50.990;7.124;2022-12-07T17:52:13;8.10;99.90
5631;DHT22;2837;50.990;7.124;2022-12-07T17:54:58;8.10;99.90
5631;DHT22;2837;50.990;7.124;2022-12-07T17:57:23;8.10;99.90
5631;DHT22;2837;50.990;7.124;2022-12-07T17:59:49;8.10;99.90
5631;DHT22;2837;50.990;7.124;2022-12-07T18:02:16;8.10;99.90
5631;DHT22;2837;50.990;7.124;2022-12-07T18:04:42;8.10;99.90
5631;DHT22;2837;50.990;7.124;2022-12-07T18:07:08;8.00;99.90
5631;DHT22;2837;50.990;7.124;2022-12-07T18:09:34;8.00;99.90
5631;DHT22;2837;50.990;7.124;2022-12-07T18:12:01;8.00;99.90
5631;DHT22;2837;50.990;7.124;2022-12-07T18:14:27;8.00;99.90
5631;DHT22;2837;50.990;7.124;2022-12-07T18:16:52;8.00;99.90
5631;DHT22;2837;50.990;7.124;2022-12-07T18:19:18;8.00;99.90
5631;DHT22;2837;50.990;7.124;2022-12-07T18:21:44;8.00;99.90
5631;DHT22;2837;50.990;7.124;2022-12-07T18:24:11;8.00;99.90
5631;DHT22;2837;50.990;7.124;2022-12-07T18:26:37;8.00;99.90
5631;DHT22;2837;50.990;7.124;2022-12-07T18:29:04;8.00;99.90
5631;DHT22;2837;50.990;7.124;2022-12-07T18:31:31;8.10;99.90
5631;DHT22;2837;50.990;7.124;2022-12-07T18:34:06;8.10;99.90
5631;DHT22;2837;50.990;7.124;2022-12-07T18:36:37;8.10;99.90
5631;DHT22;2837;50.990;7.124;2022-12-07T18:39:06;8.10;99.90
5631;DHT22;2837;50.990;7.124;2022-12-07T18:41:32;8.10;99.90
5631;DHT22;2837;50.990;7.124;2022-12-07T18:43:58;8.00;99.90
5631;DHT22;2837;50.990;7.124;2022-12-07T18:46:23;8.10;99.90
5631;DHT22;2837;50.990;7.124;2022-12-07T18:48:49;8.10;99.90
5631;DHT22;2837;50.990;7.124;2022-12-07T18:51:16;8.10;99.90
5631;DHT22;2837;50.990;7.124;2022-12-07T18:53:42;8.10;99.90
5631;DHT22;2837;50.990;7.124;2022-12-07T18:56:19;8.10;99.90
5631;DHT22;2837;50.990;7.124;2022-12-07T18:58:56;8.10;99.90
5631;DHT22;2837;50.990;7.124;2022-12-07T19:01:41;8.10;99.90
5631;DHT22;2837;50.990;7.124;2022-12-07T19:04:08;8.10;99.90
5631;DHT22;2837;50.990;7.124;2022-12-07T19:06:34;8.20;99.90
5631;DHT22;2837;50.990;7.124;2022-12-07T19:09:00;8.20;99.90
5631;DHT22;2837;50.990;7.124;2022-12-07T19:11:28;8.30;99.90
5631;DHT22;2837;50.990;7.124;2022-12-07T19:14:18;8.30;99.90
5631;DHT22;2837;50.990;7.124;2022-12-07T19:16:44;8.30;99.90
5631;DHT22;2837;50.990;7.124;2022-12-07T19:19:10;8.30;99.90
5631;DHT22;2837;50.990;7.124;2022-12-07T19:21:36;8.30;99.90
5631;DHT22;2837;50.990;7.124;2022-12-07T19:24:03;8.20;99.90
5631;DHT22;2837;50.990;7.124;2022-12-07T19:26:28;8.20;99.90
5631;DHT22;2837;50.990;7.124;2022-12-07T19:28:54;8.10;99.90
5631;DHT22;2837;50.990;7.124;2022-12-07T19:31:20;8.20;99.90
5631;DHT22;2837;50.990;7.124;2022-12-07T19:33:45;8.30;99.90
5631;DHT22;2837;50.990;7.124;2022-12-07T19:36:11;8.20;99.90
5631;DHT22;2837;50.990;7.124;2022-12-07T19:38:36;8.20;99.90
5631;DHT22;2837;50.990;7.124;2022-12-07T19:41:11;8.20;99.90
5631;DHT22;2837;50.990;7.124;2022-12-07T19:43:57;8.20;99.90
5631;DHT22;2837;50.990;7.124;2022-12-07T19:46:23;8.10;99.90
5631;DHT22;2837;50.990;7.124;2022-12-07T19:48:49;8.10;99.90
5631;DHT22;2837;50.990;7.124;2022-12-07T19:51:14;8.20;99.90
5631;DHT22;2837;50.990;7.124;2022-12-07T19:53:40;8.20;99.90
5631;DHT22;2837;50.990;7.124;2022-12-07T19:56:06;8.20;99.90
5631;DHT22;2837;50.990;7.124;2022-12-07T19:58:32;8.20;99.90
5631;DHT22;2837;50.990;7.124;2022-12-07T20:01:04;8.10;99.90
5631;DHT22;2837;50.990;7.124;2022-12-07T20:03:30;8.10;99.90
5631;DHT22;2837;50.990;7.124;2022-12-07T20:05:56;8.20;99.90
5631;DHT22;2837;50.990;7.124;2022-12-07T20:08:22;8.10;99.90
5631;DHT22;2837;50.990;7.124;2022-12-07T20:10:48;8.10;99.90
5631;DHT22;2837;50.990;7.124;2022-12-07T20:13:15;8.10;99.90
5631;DHT22;2837;50.990;7.124;2022-12-07T20:15:54;8.10;99.90
5631;DHT22;2837;50.990;7.124;2022-12-07T20:18:19;8.10;99.90
5631;DHT22;2837;50.990;7.124;2022-12-07T20:20:58;8.10;99.90
5631;DHT22;2837;50.990;7.124;2022-12-07T20:23:27;8.10;99.90
5631;DHT22;2837;50.990;7.124;2022-12-07T20:25:54;8.10;99.90
5631;DHT22;2837;50.990;7.124;2022-12-07T20:28:20;8.10;99.90
5631;DHT22;2837;50.990;7.124;2022-12-07T20:30:50;8.10;99.90
5631;DHT22;2837;50.990;7.124;2022-12-07T20:33:17;8.10;99.90
5631;DHT22;2837;50.990;7.124;2022-12-07T20:35:43;8.00;99.90
5631;DHT22;2837;50.990;7.124;2022-12-07T20:38:09;8.10;99.90
5631;DHT22;2837;50.990;7.124;2022-12-07T20:40:36;8.10;99.90
5631;DHT22;2837;50.990;7.124;2022-12-07T20:43:01;8.10;99.90
5631;DHT22;2837;50.990;7.124;2022-12-07T20:45:27;8.00;99.90
5631;DHT22;2837;50.990;7.124;2022-12-07T20:47:53;8.10;99.90
5631;DHT22;2837;50.990;7.124;2022-12-07T20:50:19;8.00;99.90
5631;DHT22;2837;50.990;7.124;2022-12-07T20:52:45;8.10;99.90
5631;DHT22;2837;50.990;7.124;2022-12-07T20:55:10;8.10;99.90
5631;DHT22;2837;50.990;7.124;2022-12-07T20:57:36;8.10;99.90
5631;DHT22;2837;50.990;7.124;2022-12-07T21:00:03;8.10;99.90
5631;DHT22;2837;50.990;7.124;2022-12-07T21:02:31;8.10;99.90
5631;DHT22;2837;50.990;7.124;2022-12-07T21:04:57;8.10;99.90
5631;DHT22;2837;50.990;7.124;2022-12-07T21:07:23;8.10;99.90
5631;DHT22;2837;50.990;7.124;2022-12-07T21:09:49;8.10;99.90
5631;DHT22;2837;50.990;7.124;2022-12-07T21:12:15;8.10;99.90
5631;DHT22;2837;50.990;7.124;2022-12-07T21:14:42;8.10;99.90
5631;DHT22;2837;50.990;7.124;2022-12-07T21:17:08;8.00;99.90
5631;DHT22;2837;50.990;7.124;2022-12-07T21:19:34;7.90;99.90
5631;DHT22;2837;50.990;7.124;2022-12-07T21:21:59;8.00;99.90
5631;DHT22;2837;50.990;7.124;2022-12-07T21:24:25;8.10;99.90
5631;DHT22;2837;50.990;7.124;2022-12-07T21:26:50;8.00;99.90
5631;DHT22;2837;50.990;7.124;2022-12-07T21:29:17;8.00;99.90
5631;DHT22;2837;50.990;7.124;2022-12-07T21:31:43;8.00;99.90
5631;DHT22;2837;50.990;7.124;2022-12-07T21:34:08;8.00;99.90
5631;DHT22;2837;50.990;7.124;2022-12-07T21:36:34;8.00;99.90
5631;DHT22;2837;50.990;7.124;2022-12-07T21:39:00;8.00;99.90
5631;DHT22;2837;50.990;7.124;2022-12-07T21:41:28;8.00;99.90
5631;DHT22;2837;50.990;7.124;2022-12-07T21:43:54;8.00;99.90
5631;DHT22;2837;50.990;7.124;2022-12-07T21:46:21;8.00;99.90
5631;DHT22;2837;50.990;7.124;2022-12-07T21:48:56;8.00;99.90
5631;DHT22;2837;50.990;7.124;2022-12-07T21:51:24;8.00;99.90
5631;DHT22;2837;50.990;7.124;2022-12-07T21:53:52;8.00;99.90
5631;DHT22;2837;50.990;7.124;2022-12-07T21:56:23;8.00;99.90
5631;DHT22;2837;50.990;7.124;2022-12-07T21:58:49;8.00;99.90
